Aviation Digital Data Service (ADDS)

Output produced by METARs form (2007 UTC 21 September 2014)
found at http://aviationweather.gov/adds/metars/
 
KLFT 211953Z 07006KT 10SM SCT048 32/19 A2999 RMK AO2 SLP156 T03170194